createdAt,value
2023-02-21T00:02:42.180Z,97.84
2023-02-21T00:05:27.725Z,97.95
2023-02-21T00:08:14.425Z,97.99
2023-02-21T00:10:59.717Z,97.76
2023-02-21T00:13:45.028Z,98.30
2023-02-21T00:16:34.250Z,97.84
2023-02-21T00:19:19.484Z,98.37
2023-02-21T00:22:04.595Z,97.89
2023-02-21T00:24:51.386Z,98.49
2023-02-21T00:27:36.679Z,98.14
2023-02-21T00:30:23.027Z,98.21
2023-02-21T00:33:08.121Z,98.17
2023-02-21T00:35:53.400Z,98.54
2023-02-21T00:38:38.575Z,98.44
2023-02-21T00:41:25.588Z,98.54
2023-02-21T00:44:11.372Z,98.11
2023-02-21T00:46:56.608Z,98.46
2023-02-21T00:49:42.433Z,98.25
2023-02-21T00:52:28.298Z,98.21
2023-02-21T00:55:13.566Z,98.61
2023-02-21T00:58:00.309Z,98.68
2023-02-21T01:00:45.381Z,98.68
2023-02-21T01:03:30.815Z,98.42
2023-02-21T01:06:16.474Z,98.72
2023-02-21T01:09:02.653Z,98.55
2023-02-21T01:11:48.296Z,98.31
2023-02-21T01:14:35.346Z,98.54
2023-02-21T01:17:20.641Z,98.82
2023-02-21T01:20:06.127Z,98.56
2023-02-21T01:22:53.174Z,98.62
2023-02-21T01:25:39.572Z,98.76
2023-02-21T01:28:24.932Z,99.07
2023-02-21T01:31:11.415Z,98.70
2023-02-21T01:33:58.205Z,99.01
2023-02-21T01:36:44.624Z,98.86
2023-02-21T01:39:30.267Z,98.52
2023-02-21T01:42:16.023Z,99.11
2023-02-21T01:45:03.187Z,99.26
2023-02-21T01:47:50.892Z,98.74
2023-02-21T01:50:40.731Z,98.47
2023-02-21T01:53:29.638Z,98.75
2023-02-21T01:56:16.141Z,98.74
2023-02-21T01:59:02.742Z,99.01
2023-02-21T02:01:57.567Z,99.06
2023-02-21T02:04:44.589Z,99.14
2023-02-21T02:07:30.343Z,98.89
2023-02-21T02:10:15.437Z,99.08
2023-02-21T02:13:10.863Z,98.66
2023-02-21T02:15:50.544Z,98.55
2023-02-21T02:18:45.891Z,98.42
2023-02-21T02:21:51.470Z,98.89
2023-02-21T02:24:39.222Z,98.81
2023-02-21T02:27:36.685Z,98.78
2023-02-21T02:30:44.569Z,98.70
2023-02-21T02:33:41.360Z,99.00
2023-02-21T02:36:15.611Z,99.02
2023-02-21T02:38:54.133Z,99.02
2023-02-21T02:41:29.703Z,98.80
2023-02-21T02:44:05.822Z,98.97
2023-02-21T02:46:35.783Z,99.21
2023-02-21T02:49:07.115Z,99.13
2023-02-21T02:51:37.347Z,98.68
2023-02-21T02:54:07.489Z,98.67
2023-02-21T02:56:36.968Z,98.78
2023-02-21T02:59:08.673Z,98.79
2023-02-21T03:02:01.507Z,99.19
2023-02-21T03:04:50.320Z,98.90
2023-02-21T03:07:26.948Z,98.95
2023-02-21T03:10:04.872Z,98.80
2023-02-21T03:12:39.867Z,99.11
2023-02-21T03:15:13.562Z,99.12
2023-02-21T03:17:44.694Z,99.20
2023-02-21T03:20:15.876Z,99.39
2023-02-21T03:22:46.868Z,98.99
2023-02-21T03:25:17.329Z,99.29
2023-02-21T03:27:48.755Z,99.27
2023-02-21T03:30:30.023Z,99.72
2023-02-21T03:32:59.028Z,99.52
2023-02-21T03:35:30.404Z,99.48
2023-02-21T03:38:00.785Z,99.59
2023-02-21T03:40:31.342Z,99.34
2023-02-21T03:43:02.361Z,99.82
2023-02-21T03:45:37.047Z,99.43
2023-02-21T03:48:26.161Z,99.76
2023-02-21T03:51:01.970Z,99.78
2023-02-21T03:53:37.066Z,99.58
2023-02-21T03:56:06.857Z,99.30
2023-02-21T03:58:49.966Z,99.55
2023-02-21T04:01:18.068Z,99.41
2023-02-21T04:03:45.992Z,99.32
2023-02-21T04:06:14.654Z,99.59
2023-02-21T04:08:43.887Z,99.81
2023-02-21T04:11:11.714Z,99.56
2023-02-21T04:13:42.498Z,99.82
2023-02-21T04:16:10.355Z,100.00
2023-02-21T04:18:39.318Z,99.75
2023-02-21T04:21:09.571Z,99.81
2023-02-21T04:23:37.907Z,99.91
2023-02-21T04:26:08.091Z,99.83
2023-02-21T04:28:42.426Z,100.00
2023-02-21T04:31:10.214Z,100.00
2023-02-21T04:33:38.277Z,100.00
2023-02-21T04:36:06.708Z,100.00
2023-02-21T04:38:41.852Z,100.00
2023-02-21T04:41:11.082Z,99.93
2023-02-21T04:43:39.256Z,100.00
2023-02-21T04:46:07.281Z,99.99
2023-02-21T04:48:35.130Z,99.98
2023-02-21T04:51:15.946Z,100.00
2023-02-21T04:53:44.527Z,100.00
2023-02-21T04:56:13.811Z,100.00
2023-02-21T04:58:45.689Z,100.00
2023-02-21T05:01:14.740Z,100.00
2023-02-21T05:03:42.728Z,99.87
2023-02-21T05:06:10.856Z,100.00
2023-02-21T05:08:38.454Z,100.00
2023-02-21T05:11:08.793Z,100.00
2023-02-21T05:13:37.939Z,100.00
2023-02-21T05:16:06.351Z,100.00
2023-02-21T05:18:34.632Z,100.00
2023-02-21T05:21:03.457Z,100.00
2023-02-21T05:23:39.954Z,100.00
2023-02-21T05:26:10.188Z,100.00
2023-02-21T05:28:41.206Z,100.00
2023-02-21T05:31:09.752Z,100.00
2023-02-21T05:33:37.621Z,100.00
2023-02-21T05:36:06.167Z,100.00
2023-02-21T05:38:34.003Z,100.00
2023-02-21T05:41:01.896Z,100.00
2023-02-21T05:43:33.715Z,100.00
2023-02-21T05:46:03.014Z,100.00
2023-02-21T05:48:30.934Z,100.00
2023-02-21T05:50:58.681Z,100.00
2023-02-21T05:53:26.577Z,100.00
2023-02-21T05:55:54.327Z,100.00
2023-02-21T05:58:22.082Z,100.00
2023-02-21T06:00:49.825Z,100.00
2023-02-21T06:03:19.027Z,100.00
2023-02-21T06:05:46.805Z,100.00
2023-02-21T06:08:14.611Z,100.00
2023-02-21T06:10:42.446Z,100.00
2023-02-21T06:13:10.176Z,100.00
2023-02-21T06:15:38.011Z,100.00
2023-02-21T06:18:05.843Z,100.00
2023-02-21T06:20:35.013Z,100.00
2023-02-21T06:23:02.832Z,100.00
2023-02-21T06:25:30.604Z,100.00
2023-02-21T06:27:58.501Z,100.00
2023-02-21T06:30:26.550Z,100.00
2023-02-21T06:32:54.327Z,100.00
2023-02-21T06:35:22.119Z,100.00
2023-02-21T06:37:51.313Z,100.00
2023-02-21T06:40:19.212Z,100.00
2023-02-21T06:42:47.468Z,100.00
2023-02-21T06:45:15.246Z,100.00
2023-02-21T06:47:43.062Z,100.00
2023-02-21T06:50:10.952Z,100.00
2023-02-21T06:52:38.744Z,100.00
2023-02-21T06:55:08.955Z,100.00
2023-02-21T06:57:36.751Z,100.00
2023-02-21T07:00:05.199Z,100.00
2023-02-21T07:02:33.020Z,100.00
2023-02-21T07:05:00.872Z,100.00
2023-02-21T07:07:28.699Z,100.00
2023-02-21T07:09:56.477Z,100.00
2023-02-21T07:12:25.655Z,100.00
2023-02-21T07:14:53.464Z,100.00
2023-02-21T07:17:21.297Z,100.00
2023-02-21T07:19:49.078Z,100.00
2023-02-21T07:22:16.828Z,100.00
2023-02-21T07:24:44.627Z,100.00
2023-02-21T07:27:12.404Z,100.00
2023-02-21T07:29:41.572Z,100.00
2023-02-21T07:32:09.334Z,100.00
2023-02-21T07:34:37.176Z,100.00
2023-02-21T07:37:04.946Z,100.00
2023-02-21T07:39:32.722Z,100.00
2023-02-21T07:42:00.456Z,100.00
2023-02-21T07:44:32.340Z,100.00
2023-02-21T07:47:01.723Z,100.00
2023-02-21T07:49:29.624Z,100.00
2023-02-21T07:51:57.372Z,100.00
2023-02-21T07:54:25.155Z,100.00
2023-02-21T07:56:53.199Z,100.00
2023-02-21T07:59:20.960Z,100.00
2023-02-21T08:01:48.993Z,100.00
2023-02-21T08:04:21.054Z,100.00
2023-02-21T08:06:49.338Z,100.00
2023-02-21T08:09:17.339Z,100.00
2023-02-21T08:11:45.162Z,100.00
2023-02-21T08:14:12.974Z,100.00
2023-02-21T08:16:40.785Z,100.00
2023-02-21T08:19:09.784Z,100.00
2023-02-21T08:21:39.381Z,100.00
2023-02-21T08:24:07.135Z,100.00
2023-02-21T08:26:34.938Z,100.00
2023-02-21T08:29:03.761Z,100.00
2023-02-21T08:31:31.623Z,100.00
2023-02-21T08:33:59.529Z,100.00
2023-02-21T08:36:32.831Z,100.00
2023-02-21T08:39:01.979Z,100.00
2023-02-21T08:41:36.768Z,100.00
2023-02-21T08:44:04.560Z,100.00
2023-02-21T08:46:32.459Z,100.00
2023-02-21T08:49:00.277Z,100.00
2023-02-21T08:51:28.672Z,100.00
2023-02-21T08:53:56.552Z,100.00
2023-02-21T08:56:26.696Z,100.00
2023-02-21T08:58:55.132Z,100.00
2023-02-21T09:01:24.045Z,100.00
2023-02-21T09:03:52.269Z,100.00
2023-02-21T09:06:20.109Z,100.00
2023-02-21T09:08:47.852Z,100.00
2023-02-21T09:11:15.904Z,100.00
2023-02-21T09:13:45.016Z,100.00
2023-02-21T09:16:12.829Z,100.00
2023-02-21T09:18:40.644Z,100.00
2023-02-21T09:21:08.469Z,100.00
2023-02-21T09:23:36.266Z,100.00
2023-02-21T09:26:04.070Z,100.00
2023-02-21T09:28:32.309Z,100.00
2023-02-21T09:31:01.501Z,100.00
2023-02-21T09:33:30.907Z,100.00
2023-02-21T09:35:58.680Z,100.00
2023-02-21T09:38:26.454Z,100.00
2023-02-21T09:40:59.120Z,100.00
2023-02-21T09:43:34.159Z,100.00
2023-02-21T09:46:06.363Z,100.00
2023-02-21T09:48:34.678Z,100.00
2023-02-21T09:51:06.556Z,100.00
2023-02-21T09:53:38.169Z,100.00
2023-02-21T09:56:12.434Z,100.00
2023-02-21T09:58:43.303Z,100.00
2023-02-21T10:01:31.344Z,100.00
2023-02-21T10:04:08.792Z,100.00
2023-02-21T10:06:44.669Z,100.00
2023-02-21T10:09:25.767Z,100.00
2023-02-21T10:12:02.605Z,100.00
2023-02-21T10:14:38.377Z,100.00
2023-02-21T10:17:16.835Z,100.00
2023-02-21T10:19:48.308Z,100.00
2023-02-21T10:22:20.958Z,100.00
2023-02-21T10:24:49.673Z,100.00
2023-02-21T10:27:20.001Z,100.00
2023-02-21T10:29:54.632Z,100.00
2023-02-21T10:32:25.529Z,100.00
2023-02-21T10:34:55.445Z,100.00
2023-02-21T10:37:35.088Z,100.00
2023-02-21T10:40:08.980Z,100.00
2023-02-21T10:42:42.471Z,100.00
2023-02-21T10:45:13.357Z,100.00
2023-02-21T10:47:54.717Z,100.00
2023-02-21T10:50:42.408Z,100.00
2023-02-21T10:53:10.990Z,100.00
2023-02-21T10:55:38.891Z,100.00
2023-02-21T10:58:10.434Z,100.00
2023-02-21T11:00:42.083Z,100.00
2023-02-21T11:06:48.293Z,100.00
2023-02-21T11:09:32.227Z,98.08
2023-02-21T11:12:06.512Z,93.81
2023-02-21T11:14:35.625Z,91.33
2023-02-21T11:17:16.418Z,90.24
2023-02-21T11:19:50.398Z,88.41
2023-02-21T11:22:22.330Z,87.30
2023-02-21T11:25:02.181Z,86.97
2023-02-21T11:27:32.511Z,86.24
2023-02-21T11:30:02.620Z,85.74
2023-02-21T11:32:36.355Z,85.41
2023-02-21T11:35:07.838Z,84.57
2023-02-21T11:37:49.977Z,83.93
2023-02-21T11:40:35.649Z,83.27
2023-02-21T11:43:17.789Z,83.43
2023-02-21T11:46:05.243Z,83.01
2023-02-21T11:48:38.372Z,82.72
2023-02-21T11:51:15.061Z,82.33
2023-02-21T11:53:45.084Z,82.16
2023-02-21T11:56:21.532Z,81.36
2023-02-21T11:58:59.008Z,80.98
2023-02-21T12:01:32.883Z,80.70
2023-02-21T12:04:29.377Z,80.08
2023-02-21T12:07:05.787Z,80.04
2023-02-21T12:09:45.112Z,80.05
2023-02-21T12:12:28.615Z,79.86
2023-02-21T12:15:07.058Z,79.31
2023-02-21T12:17:52.146Z,78.89
2023-02-21T12:20:28.869Z,78.94
2023-02-21T12:23:18.057Z,77.92
2023-02-21T12:26:13.274Z,77.22
2023-02-21T12:28:59.543Z,78.38
2023-02-21T12:31:39.649Z,78.45
2023-02-21T12:34:17.930Z,78.28
2023-02-21T12:37:03.959Z,77.39
2023-02-21T12:39:56.146Z,76.36
2023-02-21T12:42:41.939Z,77.05
2023-02-21T12:45:23.454Z,76.70
2023-02-21T12:47:57.995Z,76.73
2023-02-21T12:50:33.468Z,76.37
2023-02-21T12:53:04.527Z,75.98
2023-02-21T12:55:35.660Z,76.12
2023-02-21T12:58:14.075Z,75.46
2023-02-21T13:00:47.592Z,75.38
2023-02-21T13:03:27.674Z,75.04
2023-02-21T13:06:00.482Z,75.16
2023-02-21T13:08:33.124Z,74.87
2023-02-21T13:11:11.267Z,74.59
2023-02-21T13:13:40.846Z,74.34
2023-02-21T13:16:12.991Z,74.54
2023-02-21T13:18:44.815Z,74.24
2023-02-21T13:21:24.299Z,73.98
2023-02-21T13:23:57.285Z,73.86
2023-02-21T13:26:45.733Z,72.13
2023-02-21T13:29:20.892Z,73.16
2023-02-21T13:32:00.155Z,73.11
2023-02-21T13:34:31.531Z,73.19
2023-02-21T13:37:05.998Z,72.80
2023-02-21T13:39:37.530Z,73.02
2023-02-21T13:42:09.510Z,72.55
2023-02-21T13:44:43.306Z,72.48
2023-02-21T13:47:15.346Z,72.30
2023-02-21T13:50:01.074Z,70.23
2023-02-21T13:52:53.910Z,69.33
2023-02-21T13:55:31.440Z,71.55
2023-02-21T13:58:46.728Z,70.61
2023-02-21T14:01:50.079Z,67.86
2023-02-21T14:05:01.248Z,69.91
2023-02-21T14:07:43.613Z,70.89
2023-02-21T14:10:32.944Z,70.19
2023-02-21T14:13:05.080Z,71.76
2023-02-21T14:15:43.117Z,71.16
2023-02-21T14:18:23.553Z,70.97
2023-02-21T14:20:55.157Z,71.42
2023-02-21T14:23:26.769Z,71.36
2023-02-21T14:26:01.183Z,70.83
2023-02-21T14:28:51.797Z,69.29
2023-02-21T14:31:55.041Z,69.48
2023-02-21T14:34:28.690Z,70.81
2023-02-21T14:37:01.107Z,70.72
2023-02-21T14:39:35.609Z,70.72
2023-02-21T14:42:45.061Z,66.78
2023-02-21T14:45:24.901Z,70.01
2023-02-21T14:48:05.434Z,70.23
2023-02-21T14:50:44.776Z,69.94
2023-02-21T14:53:43.998Z,68.28
2023-02-21T14:56:35.638Z,68.67
2023-02-21T14:59:26.848Z,69.26
2023-02-21T15:02:03.926Z,69.66
2023-02-21T15:04:38.261Z,69.53
2023-02-21T15:07:18.740Z,69.16
2023-02-21T15:09:47.190Z,69.50
2023-02-21T15:12:18.272Z,69.31
2023-02-21T15:14:51.247Z,69.19
2023-02-21T15:17:23.087Z,69.11
2023-02-21T15:20:05.594Z,68.16
2023-02-21T15:22:34.847Z,68.88
2023-02-21T15:25:21.031Z,67.20
2023-02-21T15:28:00.711Z,67.88
2023-02-21T15:30:34.239Z,68.65
2023-02-21T15:33:07.759Z,68.59
2023-02-21T15:35:38.541Z,68.52
2023-02-21T15:38:16.114Z,68.45
2023-02-21T15:40:44.747Z,68.94
2023-02-21T15:43:32.296Z,66.98
2023-02-21T15:46:03.026Z,68.35
2023-02-21T15:48:31.177Z,68.37
2023-02-21T15:51:04.792Z,68.09
2023-02-21T15:53:34.172Z,68.09
2023-02-21T15:56:21.572Z,66.34
2023-02-21T15:59:11.609Z,66.48
2023-02-21T16:01:39.962Z,67.98
2023-02-21T16:04:22.466Z,66.47
2023-02-21T16:06:53.347Z,67.88
2023-02-21T16:09:31.349Z,66.93
2023-02-21T16:12:02.248Z,67.77
2023-02-21T16:14:40.295Z,67.15
2023-02-21T16:17:22.437Z,67.30
2023-02-21T16:19:53.849Z,67.72
2023-02-21T16:22:29.323Z,67.61
2023-02-21T16:25:20.741Z,65.74
2023-02-21T16:27:51.243Z,67.89
2023-02-21T16:30:21.565Z,67.63
2023-02-21T16:32:51.166Z,67.69
2023-02-21T16:35:21.571Z,67.42
2023-02-21T16:37:50.802Z,67.45
2023-02-21T16:40:24.896Z,67.44
2023-02-21T16:42:54.056Z,67.52
2023-02-21T16:45:22.182Z,67.73
2023-02-21T16:47:52.158Z,67.34
2023-02-21T16:50:23.497Z,67.41
2023-02-21T16:52:51.358Z,67.44
2023-02-21T16:55:20.959Z,67.64
2023-02-21T16:57:50.253Z,67.51
2023-02-21T17:00:21.866Z,67.15
2023-02-21T17:02:50.024Z,67.52
2023-02-21T17:05:18.551Z,67.45
2023-02-21T17:07:46.329Z,67.43
2023-02-21T17:10:14.377Z,62.65
2023-02-21T17:12:43.653Z,57.95
2023-02-21T17:15:11.980Z,60.14
2023-02-21T17:17:40.546Z,61.16
2023-02-21T17:20:15.564Z,61.29
2023-02-21T17:22:43.369Z,61.24
2023-02-21T17:25:12.144Z,61.86
2023-02-21T17:27:39.887Z,61.93
2023-02-21T17:30:11.355Z,62.32
2023-02-21T17:32:39.268Z,62.19
2023-02-21T17:35:07.335Z,62.56
2023-02-21T17:37:35.084Z,62.54
2023-02-21T17:40:05.069Z,62.74
2023-02-21T17:42:32.872Z,62.54
2023-02-21T17:45:02.211Z,63.06
2023-02-21T17:47:31.383Z,62.69
2023-02-21T17:50:02.503Z,62.88
2023-02-21T17:52:31.197Z,62.66
2023-02-21T17:54:59.138Z,62.53
2023-02-21T17:57:26.892Z,62.32
2023-02-21T17:59:54.795Z,62.74
2023-02-21T18:02:22.537Z,62.56
2023-02-21T18:04:51.707Z,62.57
2023-02-21T18:07:19.529Z,62.76
2023-02-21T18:09:47.600Z,62.41
2023-02-21T18:12:16.391Z,62.32
2023-02-21T18:14:44.202Z,62.71
2023-02-21T18:17:12.562Z,62.55
2023-02-21T18:19:40.341Z,62.77
2023-02-21T18:22:09.747Z,62.33
2023-02-21T18:24:38.690Z,62.64
2023-02-21T18:27:06.458Z,62.22
2023-02-21T18:29:34.240Z,62.22
2023-02-21T18:32:02.027Z,62.30
2023-02-21T18:34:29.815Z,62.01
2023-02-21T18:36:57.652Z,61.94
2023-02-21T18:39:26.954Z,62.24
2023-02-21T18:41:54.835Z,61.85
2023-02-21T18:44:22.772Z,62.01
2023-02-21T18:46:54.028Z,62.05
2023-02-21T18:49:23.037Z,62.03
2023-02-21T18:51:51.402Z,61.85
2023-02-21T18:54:19.831Z,61.75
2023-02-21T18:56:50.379Z,61.48
2023-02-21T18:59:19.153Z,61.45
2023-02-21T19:01:49.705Z,61.16
2023-02-21T19:04:17.548Z,61.75
2023-02-21T19:06:45.516Z,61.40
2023-02-21T19:09:13.830Z,61.44
2023-02-21T19:11:41.751Z,61.57
2023-02-21T19:14:10.931Z,61.40
2023-02-21T19:16:39.059Z,61.17
2023-02-21T19:19:07.091Z,61.53
2023-02-21T19:21:34.978Z,61.69
2023-02-21T19:24:04.118Z,61.53
2023-02-21T19:26:32.090Z,61.68
2023-02-21T19:28:59.926Z,61.49
2023-02-21T19:31:29.240Z,61.17
2023-02-21T19:33:57.134Z,61.48
2023-02-21T19:36:25.025Z,61.54
2023-02-21T19:38:52.838Z,61.48
2023-02-21T19:41:21.677Z,61.07
2023-02-21T19:43:49.482Z,58.89
2023-02-21T19:46:21.960Z,59.42
2023-02-21T19:48:51.602Z,59.82
2023-02-21T19:51:21.734Z,60.34
2023-02-21T19:53:49.737Z,60.49
2023-02-21T19:56:17.866Z,60.09
2023-02-21T19:58:47.192Z,60.50
2023-02-21T20:01:15.680Z,60.20
2023-02-21T20:03:44.315Z,60.36
2023-02-21T20:06:13.517Z,60.68
2023-02-21T20:08:43.916Z,60.29
2023-02-21T20:11:11.809Z,60.61
2023-02-21T20:13:39.610Z,60.75
2023-02-21T20:16:07.379Z,60.60
2023-02-21T20:18:35.153Z,60.53
2023-02-21T20:21:03.115Z,60.59
2023-02-21T20:23:32.229Z,60.33
2023-02-21T20:25:59.961Z,60.70
2023-02-21T20:28:27.839Z,60.57
2023-02-21T20:30:55.719Z,60.71
2023-02-21T20:33:24.691Z,60.47
2023-02-21T20:35:53.016Z,60.71
2023-02-21T20:38:21.496Z,60.14
2023-02-21T20:40:50.771Z,60.42
2023-02-21T20:43:18.531Z,60.47
2023-02-21T20:45:46.356Z,60.41
2023-02-21T20:48:14.306Z,60.74
2023-02-21T20:50:42.575Z,60.29
2023-02-21T20:53:11.303Z,60.38
2023-02-21T20:55:40.252Z,60.21
2023-02-21T20:58:10.430Z,60.20
2023-02-21T21:00:38.542Z,59.93
2023-02-21T21:03:06.939Z,59.76
2023-02-21T21:05:34.732Z,59.70
2023-02-21T21:08:02.499Z,59.86
2023-02-21T21:10:30.294Z,60.06
2023-02-21T21:12:58.270Z,59.69
2023-02-21T21:15:27.714Z,59.49
2023-02-21T21:17:55.879Z,59.79
2023-02-21T21:20:27.035Z,59.72
2023-02-21T21:22:54.846Z,59.75
2023-02-21T21:25:23.593Z,59.71
2023-02-21T21:27:51.956Z,59.51
2023-02-21T21:30:22.876Z,59.61
2023-02-21T21:32:52.117Z,59.75
2023-02-21T21:35:20.826Z,59.84
2023-02-21T21:37:49.116Z,59.53
2023-02-21T21:40:17.476Z,59.70
2023-02-21T21:42:46.809Z,59.77
2023-02-21T21:45:24.602Z,59.20
2023-02-21T21:47:58.402Z,59.58
2023-02-21T21:50:26.762Z,59.85
2023-02-21T21:52:57.449Z,59.70
2023-02-21T21:55:28.603Z,59.67
2023-02-21T21:57:58.691Z,59.82
2023-02-21T22:00:29.034Z,59.52
2023-02-21T22:03:01.917Z,59.41
2023-02-21T22:05:31.579Z,59.66
2023-02-21T22:08:00.348Z,59.39
2023-02-21T22:10:29.143Z,59.56
2023-02-21T22:12:59.961Z,59.78
2023-02-21T22:15:30.232Z,59.24
2023-02-21T22:18:03.800Z,56.58
2023-02-21T22:20:31.821Z,57.45
2023-02-21T22:23:00.051Z,57.78
2023-02-21T22:25:30.245Z,57.95
2023-02-21T22:27:58.957Z,58.30
2023-02-21T22:30:26.879Z,58.18
2023-02-21T22:32:54.691Z,55.36
2023-02-21T22:35:25.150Z,56.64
2023-02-21T22:37:55.202Z,57.03
2023-02-21T22:40:25.799Z,57.57
2023-02-21T22:42:54.374Z,57.96
2023-02-21T22:45:23.638Z,58.14
2023-02-21T22:47:53.925Z,58.15
2023-02-21T22:50:24.243Z,58.01
2023-02-21T22:52:52.447Z,58.54
2023-02-21T22:55:20.203Z,58.48
2023-02-21T22:57:47.951Z,58.37
2023-02-21T23:00:20.215Z,58.45
2023-02-21T23:02:48.641Z,58.82
2023-02-21T23:05:19.397Z,58.79
2023-02-21T23:07:51.292Z,58.89
2023-02-21T23:10:23.686Z,58.76
2023-02-21T23:12:52.600Z,58.77
2023-02-21T23:15:22.320Z,58.97
2023-02-21T23:17:51.528Z,59.06
2023-02-21T23:20:22.609Z,59.01
2023-02-21T23:22:53.731Z,58.75
2023-02-21T23:25:25.497Z,58.76
2023-02-21T23:27:56.626Z,58.70
2023-02-21T23:30:27.512Z,58.97
2023-02-21T23:32:56.548Z,58.76
2023-02-21T23:35:24.330Z,59.17
2023-02-21T23:37:53.494Z,59.13
2023-02-21T23:40:23.471Z,58.88
2023-02-21T23:42:55.457Z,58.75
2023-02-21T23:45:25.017Z,59.14
2023-02-21T23:47:54.927Z,58.88
2023-02-21T23:50:30.416Z,58.89
2023-02-21T23:53:00.152Z,59.15
2023-02-21T23:55:29.885Z,59.12
2023-02-21T23:57:59.847Z,58.90
